sensor_id;sensor_type;location;lat;lon;timestamp;pressure;altitude;pressure_sealevel;temperature;humidity
63115;BME280;49208;50.874;6.466;2023-08-17T06:02:37;100718.56;;;16.89;100.00
63115;BME280;49208;50.874;6.466;2023-08-17T06:05:03;100725.50;;;16.93;100.00
63115;BME280;49208;50.874;6.466;2023-08-17T06:07:28;100732.53;;;16.96;100.00
63115;BME280;49208;50.874;6.466;2023-08-17T06:09:54;100728.69;;;17.00;100.00
63115;BME280;49208;50.874;6.466;2023-08-17T06:12:19;100723.31;;;17.00;100.00
63115;BME280;49208;50.874;6.466;2023-08-17T06:14:45;100730.41;;;17.01;100.00
63115;BME280;49208;50.874;6.466;2023-08-17T06:17:10;100725.94;;;17.02;100.00
63115;BME280;49208;50.874;6.466;2023-08-17T06:19:36;100732.19;;;17.02;100.00
63115;BME280;49208;50.874;6.466;2023-08-17T06:22:01;100735.66;;;17.04;100.00
63115;BME280;49208;50.874;6.466;2023-08-17T06:24:26;100745.25;;;17.08;100.00
63115;BME280;49208;50.874;6.466;2023-08-17T06:26:52;100742.56;;;17.08;100.00
63115;BME280;49208;50.874;6.466;2023-08-17T06:29:17;100741.53;;;17.11;100.00
63115;BME280;49208;50.874;6.466;2023-08-17T06:31:43;100734.22;;;17.13;100.00
63115;BME280;49208;50.874;6.466;2023-08-17T06:34:08;100747.50;;;17.16;100.00
63115;BME280;49208;50.874;6.466;2023-08-17T06:36:33;100736.66;;;17.17;100.00
63115;BME280;49208;50.874;6.466;2023-08-17T06:38:59;100742.81;;;17.20;100.00
63115;BME280;49208;50.874;6.466;2023-08-17T06:41:25;100739.06;;;17.22;100.00
63115;BME280;49208;50.874;6.466;2023-08-17T06:43:51;100732.53;;;17.26;100.00
63115;BME280;49208;50.874;6.466;2023-08-17T06:46:16;100733.22;;;17.30;100.00
63115;BME280;49208;50.874;6.466;2023-08-17T06:48:42;100732.88;;;17.36;100.00
63115;BME280;49208;50.874;6.466;2023-08-17T06:51:08;100735.47;;;17.37;100.00
63115;BME280;49208;50.874;6.466;2023-08-17T06:53:33;100725.59;;;17.38;100.00
63115;BME280;49208;50.874;6.466;2023-08-17T06:55:58;100737.03;;;17.42;100.00
63115;BME280;49208;50.874;6.466;2023-08-17T06:58:24;100737.31;;;17.51;100.00
63115;BME280;49208;50.874;6.466;2023-08-17T07:00:49;100742.34;;;17.57;100.00
63115;BME280;49208;50.874;6.466;2023-08-17T07:03:15;100743.81;;;17.63;100.00
63115;BME280;49208;50.874;6.466;2023-08-17T07:05:41;100742.59;;;17.69;100.00
63115;BME280;49208;50.874;6.466;2023-08-17T07:08:07;100747.69;;;17.73;100.00
63115;BME280;49208;50.874;6.466;2023-08-17T07:10:32;100750.88;;;17.80;100.00
63115;BME280;49208;50.874;6.466;2023-08-17T07:12:58;100759.50;;;17.87;100.00
63115;BME280;49208;50.874;6.466;2023-08-17T07:15:27;100760.06;;;17.92;100.00
63115;BME280;49208;50.874;6.466;2023-08-17T07:17:53;100753.63;;;17.94;100.00
63115;BME280;49208;50.874;6.466;2023-08-17T07:20:18;100756.50;;;17.91;100.00
63115;BME280;49208;50.874;6.466;2023-08-17T07:22:44;100753.63;;;17.94;100.00
63115;BME280;49208;50.874;6.466;2023-08-17T07:25:09;100751.53;;;18.00;100.00
63115;BME280;49208;50.874;6.466;2023-08-17T07:27:34;100761.78;;;18.07;100.00
63115;BME280;49208;50.874;6.466;2023-08-17T07:30:00;100762.69;;;18.08;100.00
63115;BME280;49208;50.874;6.466;2023-08-17T07:32:25;100758.84;;;18.12;100.00
63115;BME280;49208;50.874;6.466;2023-08-17T07:34:51;100761.41;;;18.13;100.00
63115;BME280;49208;50.874;6.466;2023-08-17T07:37:16;100766.03;;;18.11;100.00
63115;BME280;49208;50.874;6.466;2023-08-17T07:39:42;100771.16;;;18.16;100.00
63115;BME280;49208;50.874;6.466;2023-08-17T07:42:07;100770.28;;;18.15;100.00
63115;BME280;49208;50.874;6.466;2023-08-17T07:44:32;100767.56;;;18.15;100.00
63115;BME280;49208;50.874;6.466;2023-08-17T07:46:59;100767.19;;;18.22;100.00
63115;BME280;49208;50.874;6.466;2023-08-17T07:49:27;100772.97;;;18.30;100.00
63115;BME280;49208;50.874;6.466;2023-08-17T07:51:53;100771.53;;;18.38;100.00
63115;BME280;49208;50.874;6.466;2023-08-17T07:54:18;100772.88;;;18.46;100.00
63115;BME280;49208;50.874;6.466;2023-08-17T07:56:43;100772.78;;;18.47;100.00
63115;BME280;49208;50.874;6.466;2023-08-17T07:59:09;100775.97;;;18.54;100.00
63115;BME280;49208;50.874;6.466;2023-08-17T08:01:34;100775.47;;;18.62;100.00
63115;BME280;49208;50.874;6.466;2023-08-17T08:04:00;100781.44;;;18.67;100.00
63115;BME280;49208;50.874;6.466;2023-08-17T08:06:26;100776.81;;;18.69;100.00
63115;BME280;49208;50.874;6.466;2023-08-17T08:08:51;100780.19;;;18.72;100.00
63115;BME280;49208;50.874;6.466;2023-08-17T08:11:17;100776.41;;;18.75;100.00
63115;BME280;49208;50.874;6.466;2023-08-17T08:13:42;100772.63;;;18.77;100.00
63115;BME280;49208;50.874;6.466;2023-08-17T08:16:07;100777.97;;;18.79;100.00
63115;BME280;49208;50.874;6.466;2023-08-17T08:18:34;100773.44;;;18.80;100.00
63115;BME280;49208;50.874;6.466;2023-08-17T08:20:59;100771.50;;;18.82;100.00
63115;BME280;49208;50.874;6.466;2023-08-17T08:23:25;100765.34;;;18.80;100.00
63115;BME280;49208;50.874;6.466;2023-08-17T08:25:51;100766.97;;;18.82;100.00
63115;BME280;49208;50.874;6.466;2023-08-17T08:28:16;100766.25;;;18.80;100.00
63115;BME280;49208;50.874;6.466;2023-08-17T08:30:42;100760.84;;;18.80;100.00
63115;BME280;49208;50.874;6.466;2023-08-17T08:33:07;100760.84;;;18.80;100.00
63115;BME280;49208;50.874;6.466;2023-08-17T08:35:33;100766.25;;;18.80;100.00
63115;BME280;49208;50.874;6.466;2023-08-17T08:37:59;100769.78;;;18.81;100.00
63115;BME280;49208;50.874;6.466;2023-08-17T08:40:28;100780.28;;;18.85;100.00
63115;BME280;49208;50.874;6.466;2023-08-17T08:42:57;100779.22;;;18.88;100.00
63115;BME280;49208;50.874;6.466;2023-08-17T08:45:23;100770.25;;;18.87;100.00
63115;BME280;49208;50.874;6.466;2023-08-17T08:47:49;100768.50;;;18.86;100.00
63115;BME280;49208;50.874;6.466;2023-08-17T08:50:19;100770.44;;;18.84;100.00
63115;BME280;49208;50.874;6.466;2023-08-17T08:52:50;100772.59;;;18.79;100.00
63115;BME280;49208;50.874;6.466;2023-08-17T08:55:21;100780.09;;;18.74;100.00
63115;BME280;49208;50.874;6.466;2023-08-17T08:57:49;100774.03;;;18.70;100.00
63115;BME280;49208;50.874;6.466;2023-08-17T09:00:15;100771.91;;;18.61;100.00
63115;BME280;49208;50.874;6.466;2023-08-17T09:02:42;100769.31;;;18.60;100.00
63115;BME280;49208;50.874;6.466;2023-08-17T09:05:10;100772.09;;;18.58;100.00
63115;BME280;49208;50.874;6.466;2023-08-17T09:07:37;100762.94;;;18.61;100.00
63115;BME280;49208;50.874;6.466;2023-08-17T09:10:03;100756.41;;;18.65;100.00
63115;BME280;49208;50.874;6.466;2023-08-17T09:12:29;100758.69;;;18.71;100.00
63115;BME280;49208;50.874;6.466;2023-08-17T09:14:55;100759.28;;;18.76;100.00
63115;BME280;49208;50.874;6.466;2023-08-17T09:17:24;100756.09;;;18.84;100.00
63115;BME280;49208;50.874;6.466;2023-08-17T09:19:50;100760.22;;;18.89;100.00
63115;BME280;49208;50.874;6.466;2023-08-17T09:22:41;100751.81;;;18.94;100.00
63115;BME280;49208;50.874;6.466;2023-08-17T09:25:09;100756.72;;;19.02;100.00
63115;BME280;49208;50.874;6.466;2023-08-17T09:27:38;100752.88;;;19.06;100.00
63115;BME280;49208;50.874;6.466;2023-08-17T09:30:09;100744.78;;;19.06;100.00
63115;BME280;49208;50.874;6.466;2023-08-17T09:32:35;100735.25;;;19.00;100.00
63115;BME280;49208;50.874;6.466;2023-08-17T09:35:01;100739.38;;;19.06;100.00
63115;BME280;49208;50.874;6.466;2023-08-17T09:37:27;100741.66;;;19.12;100.00
63115;BME280;49208;50.874;6.466;2023-08-17T09:39:53;100733.06;;;19.20;100.00
63115;BME280;49208;50.874;6.466;2023-08-17T09:42:20;100728.47;;;19.34;100.00
63115;BME280;49208;50.874;6.466;2023-08-17T09:44:48;100741.66;;;19.52;100.00
63115;BME280;49208;50.874;6.466;2023-08-17T09:47:14;100734.66;;;19.62;100.00
63115;BME280;49208;50.874;6.466;2023-08-17T09:49:40;100738.16;;;19.77;100.00
63115;BME280;49208;50.874;6.466;2023-08-17T09:52:05;100735.78;;;19.85;100.00
63115;BME280;49208;50.874;6.466;2023-08-17T09:54:32;100734.72;;;19.88;100.00
63115;BME280;49208;50.874;6.466;2023-08-17T09:56:58;100733.66;;;19.90;100.00
63115;BME280;49208;50.874;6.466;2023-08-17T09:59:25;100737.31;;;19.89;100.00
63115;BME280;49208;50.874;6.466;2023-08-17T10:01:51;100742.19;;;19.84;100.00
63115;BME280;49208;50.874;6.466;2023-08-17T10:04:23;100736.22;;;19.79;100.00
63115;BME280;49208;50.874;6.466;2023-08-17T10:06:52;100736.84;;;19.70;100.00
63115;BME280;49208;50.874;6.466;2023-08-17T10:09:25;100735.94;;;19.69;100.00
63115;BME280;49208;50.874;6.466;2023-08-17T10:11:54;100732.22;;;19.72;100.00
63115;BME280;49208;50.874;6.466;2023-08-17T10:14:27;100736.31;;;19.77;100.00
63115;BME280;49208;50.874;6.466;2023-08-17T10:17:01;100730.28;;;19.87;100.00
63115;BME280;49208;50.874;6.466;2023-08-17T10:19:49;100731.56;;;19.94;100.00
63115;BME280;49208;50.874;6.466;2023-08-17T10:22:23;100733.22;;;19.96;100.00
63115;BME280;49208;50.874;6.466;2023-08-17T10:24:51;100734.84;;;19.86;100.00
63115;BME280;49208;50.874;6.466;2023-08-17T10:27:18;100735.38;;;19.91;100.00
63115;BME280;49208;50.874;6.466;2023-08-17T10:29:44;100730.50;;;19.84;100.00
63115;BME280;49208;50.874;6.466;2023-08-17T10:32:11;100730.81;;;19.92;100.00
63115;BME280;49208;50.874;6.466;2023-08-17T10:34:37;100732.03;;;20.01;100.00
63115;BME280;49208;50.874;6.466;2023-08-17T10:37:04;100731.69;;;20.05;100.00
63115;BME280;49208;50.874;6.466;2023-08-17T10:39:31;100738.38;;;20.12;100.00
63115;BME280;49208;50.874;6.466;2023-08-17T10:41:58;100741.00;;;20.14;100.00
63115;BME280;49208;50.874;6.466;2023-08-17T10:47:28;100746.50;;;20.12;100.00
63115;BME280;49208;50.874;6.466;2023-08-17T10:50:19;100745.88;;;20.09;100.00
63115;BME280;49208;50.874;6.466;2023-08-17T10:52:48;100745.75;;;20.10;100.00
63115;BME280;49208;50.874;6.466;2023-08-17T10:55:13;100747.06;;;20.05;100.00
63115;BME280;49208;50.874;6.466;2023-08-17T10:57:43;100752.34;;;20.06;100.00
63115;BME280;49208;50.874;6.466;2023-08-17T11:00:24;100747.06;;;20.05;100.00
63115;BME280;49208;50.874;6.466;2023-08-17T11:02:58;100758.72;;;20.05;100.00
63115;BME280;49208;50.874;6.466;2023-08-17T11:05:46;100747.81;;;20.07;100.00
63115;BME280;49208;50.874;6.466;2023-08-17T11:08:27;100752.13;;;20.09;100.00
63115;BME280;49208;50.874;6.466;2023-08-17T11:13:28;100751.91;;;20.12;100.00
63115;BME280;49208;50.874;6.466;2023-08-17T11:15:57;100762.09;;;20.22;100.00
63115;BME280;49208;50.874;6.466;2023-08-17T11:18:23;100749.94;;;20.27;100.00
63115;BME280;49208;50.874;6.466;2023-08-17T11:20:49;100753.09;;;20.34;100.00
63115;BME280;49208;50.874;6.466;2023-08-17T11:23:15;100753.84;;;20.36;100.00
63115;BME280;49208;50.874;6.466;2023-08-17T11:25:42;100749.31;;;20.36;100.00
63115;BME280;49208;50.874;6.466;2023-08-17T11:28:08;100750.69;;;20.29;100.00
63115;BME280;49208;50.874;6.466;2023-08-17T11:30:34;100755.56;;;20.37;100.00
63115;BME280;49208;50.874;6.466;2023-08-17T11:33:01;100755.97;;;20.44;100.00
63115;BME280;49208;50.874;6.466;2023-08-17T11:35:26;100757.72;;;20.45;100.00
63115;BME280;49208;50.874;6.466;2023-08-17T11:37:52;100766.69;;;20.45;100.00
63115;BME280;49208;50.874;6.466;2023-08-17T11:40:17;100769.94;;;20.50;100.00
63115;BME280;49208;50.874;6.466;2023-08-17T11:42:44;100772.97;;;20.46;100.00
63115;BME280;49208;50.874;6.466;2023-08-17T11:45:10;100772.09;;;20.45;100.00
63115;BME280;49208;50.874;6.466;2023-08-17T11:47:37;100764.22;;;20.42;100.00
63115;BME280;49208;50.874;6.466;2023-08-17T11:50:03;100767.56;;;20.46;100.00
63115;BME280;49208;50.874;6.466;2023-08-17T11:52:30;100765.41;;;20.51;100.00
63115;BME280;49208;50.874;6.466;2023-08-17T11:55:01;100766.69;;;20.58;100.00
63115;BME280;49208;50.874;6.466;2023-08-17T11:57:26;100770.38;;;20.57;100.00
63115;BME280;49208;50.874;6.466;2023-08-17T11:59:55;100761.19;;;20.59;100.00
63115;BME280;49208;50.874;6.466;2023-08-17T12:02:24;100755.44;;;20.64;100.00
63115;BME280;49208;50.874;6.466;2023-08-17T12:04:54;100759.88;;;20.65;100.00
63115;BME280;49208;50.874;6.466;2023-08-17T12:07:20;100753.28;;;20.69;100.00
63115;BME280;49208;50.874;6.466;2023-08-17T12:09:47;100753.50;;;20.66;100.00
63115;BME280;49208;50.874;6.466;2023-08-17T12:12:13;100752.53;;;20.67;100.00
63115;BME280;49208;50.874;6.466;2023-08-17T12:14:42;100747.72;;;20.71;100.00
63115;BME280;49208;50.874;6.466;2023-08-17T12:17:14;100755.34;;;20.66;100.00
63115;BME280;49208;50.874;6.466;2023-08-17T12:19:41;100758.16;;;20.64;100.00
63115;BME280;49208;50.874;6.466;2023-08-17T12:22:07;100762.59;;;20.65;100.00
63115;BME280;49208;50.874;6.466;2023-08-17T12:24:32;100750.38;;;20.59;100.00
63115;BME280;49208;50.874;6.466;2023-08-17T12:27:01;100758.16;;;20.51;100.00
63115;BME280;49208;50.874;6.466;2023-08-17T12:29:27;100754.34;;;20.54;100.00
63115;BME280;49208;50.874;6.466;2023-08-17T12:31:52;100757.03;;;20.54;100.00
63115;BME280;49208;50.874;6.466;2023-08-17T12:34:19;100759.00;;;20.52;100.00
63115;BME280;49208;50.874;6.466;2023-08-17T12:36:45;100755.69;;;20.48;100.00
63115;BME280;49208;50.874;6.466;2023-08-17T12:39:10;100755.13;;;20.43;100.00
63115;BME280;49208;50.874;6.466;2023-08-17T12:41:35;100752.66;;;20.40;100.00
63115;BME280;49208;50.874;6.466;2023-08-17T12:44:02;100749.31;;;20.36;100.00
63115;BME280;49208;50.874;6.466;2023-08-17T12:46:27;100742.28;;;20.34;100.00
63115;BME280;49208;50.874;6.466;2023-08-17T12:48:53;100748.88;;;20.30;100.00
63115;BME280;49208;50.874;6.466;2023-08-17T12:51:18;100739.69;;;20.32;100.00
63115;BME280;49208;50.874;6.466;2023-08-17T12:53:44;100748.00;;;20.29;100.00
63115;BME280;49208;50.874;6.466;2023-08-17T12:56:09;100753.41;;;20.29;100.00
63115;BME280;49208;50.874;6.466;2023-08-17T12:58:35;100749.09;;;20.27;100.00
63115;BME280;49208;50.874;6.466;2023-08-17T13:01:02;100744.88;;;20.23;100.00
63115;BME280;49208;50.874;6.466;2023-08-17T13:03:28;100750.19;;;20.24;100.00
63115;BME280;49208;50.874;6.466;2023-08-17T13:05:54;100741.50;;;20.19;100.00
63115;BME280;49208;50.874;6.466;2023-08-17T13:08:19;100741.75;;;20.16;100.00
63115;BME280;49208;50.874;6.466;2023-08-17T13:10:44;100740.22;;;20.25;100.00
63115;BME280;49208;50.874;6.466;2023-08-17T13:13:10;100739.69;;;20.32;100.00
63115;BME280;49208;50.874;6.466;2023-08-17T13:15:35;100731.91;;;20.28;100.00
63115;BME280;49208;50.874;6.466;2023-08-17T13:18:01;100734.78;;;20.37;100.00
63115;BME280;49208;50.874;6.466;2023-08-17T13:20:26;100728.84;;;20.58;100.00
63115;BME280;49208;50.874;6.466;2023-08-17T13:22:55;100720.41;;;20.87;100.00
63115;BME280;49208;50.874;6.466;2023-08-17T13:25:21;100724.56;;;21.04;100.00
63115;BME280;49208;50.874;6.466;2023-08-17T13:27:48;100720.63;;;21.32;100.00
63115;BME280;49208;50.874;6.466;2023-08-17T13:30:14;100716.19;;;21.55;99.44
63115;BME280;49208;50.874;6.466;2023-08-17T13:32:39;100714.66;;;21.86;97.63
63115;BME280;49208;50.874;6.466;2023-08-17T13:35:06;100715.91;;;22.05;95.52
63115;BME280;49208;50.874;6.466;2023-08-17T13:37:32;100713.06;;;21.95;93.62
63115;BME280;49208;50.874;6.466;2023-08-17T13:39:57;100704.59;;;22.11;94.50
63115;BME280;49208;50.874;6.466;2023-08-17T13:42:23;100702.41;;;22.27;93.19
63115;BME280;49208;50.874;6.466;2023-08-17T13:44:49;100708.66;;;22.39;93.17
63115;BME280;49208;50.874;6.466;2023-08-17T13:47:14;100700.91;;;22.34;92.05
63115;BME280;49208;50.874;6.466;2023-08-17T13:49:40;100704.09;;;22.51;92.43
63115;BME280;49208;50.874;6.466;2023-08-17T13:52:05;100691.22;;;22.75;92.13
63115;BME280;49208;50.874;6.466;2023-08-17T13:54:30;100699.03;;;22.69;90.32
63115;BME280;49208;50.874;6.466;2023-08-17T13:56:56;100691.50;;;22.61;90.69
63115;BME280;49208;50.874;6.466;2023-08-17T13:59:21;100691.34;;;22.74;90.54
63115;BME280;49208;50.874;6.466;2023-08-17T14:01:47;100696.47;;;22.56;89.80
63115;BME280;49208;50.874;6.466;2023-08-17T14:04:12;100684.59;;;22.68;90.47
63115;BME280;49208;50.874;6.466;2023-08-17T14:06:40;100678.00;;;22.82;91.47
63115;BME280;49208;50.874;6.466;2023-08-17T14:09:05;100679.47;;;22.86;90.24
63115;BME280;49208;50.874;6.466;2023-08-17T14:11:31;100670.06;;;22.90;90.48
63115;BME280;49208;50.874;6.466;2023-08-17T14:13:56;100669.34;;;22.88;88.67
63115;BME280;49208;50.874;6.466;2023-08-17T14:16:22;100663.53;;;22.93;89.19
63115;BME280;49208;50.874;6.466;2023-08-17T14:18:47;100653.03;;;22.99;89.19
63115;BME280;49208;50.874;6.466;2023-08-17T14:21:12;100641.56;;;22.96;87.86
63115;BME280;49208;50.874;6.466;2023-08-17T14:23:38;100647.13;;;23.06;88.96
63115;BME280;49208;50.874;6.466;2023-08-17T14:26:04;100653.28;;;23.08;88.04
63115;BME280;49208;50.874;6.466;2023-08-17T14:28:29;100653.72;;;23.13;87.27
63115;BME280;49208;50.874;6.466;2023-08-17T14:30:55;100657.38;;;23.02;86.72
63115;BME280;49208;50.874;6.466;2023-08-17T14:33:20;100654.19;;;22.86;87.32
63115;BME280;49208;50.874;6.466;2023-08-17T14:35:45;100653.09;;;22.77;88.61
63115;BME280;49208;50.874;6.466;2023-08-17T14:38:11;100651.88;;;22.81;88.70
63115;BME280;49208;50.874;6.466;2023-08-17T14:40:42;100643.66;;;22.92;88.97
63115;BME280;49208;50.874;6.466;2023-08-17T14:43:08;100642.06;;;22.90;88.06
63115;BME280;49208;50.874;6.466;2023-08-17T14:45:34;100640.44;;;22.98;87.37
63115;BME280;49208;50.874;6.466;2023-08-17T14:48:00;100636.09;;;22.75;86.23
63115;BME280;49208;50.874;6.466;2023-08-17T14:50:25;100634.88;;;22.68;88.09
63115;BME280;49208;50.874;6.466;2023-08-17T14:52:51;100635.59;;;22.70;87.96
63115;BME280;49208;50.874;6.466;2023-08-17T14:55:16;100624.19;;;22.55;87.95
63115;BME280;49208;50.874;6.466;2023-08-17T14:57:41;100626.16;;;22.53;89.96
63115;BME280;49208;50.874;6.466;2023-08-17T15:00:08;100623.06;;;22.57;89.72
63115;BME280;49208;50.874;6.466;2023-08-17T15:02:33;100624.63;;;22.71;88.89
63115;BME280;49208;50.874;6.466;2023-08-17T15:04:59;100617.00;;;22.65;86.25
63115;BME280;49208;50.874;6.466;2023-08-17T15:07:25;100626.94;;;22.76;87.75
63115;BME280;49208;50.874;6.466;2023-08-17T15:09:50;100616.19;;;22.86;87.20
63115;BME280;49208;50.874;6.466;2023-08-17T15:12:15;100617.66;;;22.90;87.98
63115;BME280;49208;50.874;6.466;2023-08-17T15:14:41;100622.81;;;22.93;87.72
63115;BME280;49208;50.874;6.466;2023-08-17T15:17:07;100614.66;;;23.04;89.21
63115;BME280;49208;50.874;6.466;2023-08-17T15:19:34;100617.00;;;22.97;85.92
63115;BME280;49208;50.874;6.466;2023-08-17T15:21:59;100612.78;;;23.05;86.18
63115;BME280;49208;50.874;6.466;2023-08-17T15:24:25;100617.09;;;23.07;85.35
63115;BME280;49208;50.874;6.466;2023-08-17T15:26:50;100612.53;;;23.08;85.56
63115;BME280;49208;50.874;6.466;2023-08-17T15:29:16;100612.31;;;22.99;85.02
63115;BME280;49208;50.874;6.466;2023-08-17T15:31:41;100613.53;;;23.07;85.61
63115;BME280;49208;50.874;6.466;2023-08-17T15:34:06;100616.53;;;23.25;88.08
63115;BME280;49208;50.874;6.466;2023-08-17T15:36:32;100613.59;;;23.37;86.41
63115;BME280;49208;50.874;6.466;2023-08-17T15:38:57;100607.97;;;23.29;86.05
63115;BME280;49208;50.874;6.466;2023-08-17T15:41:22;100614.78;;;23.24;86.00
63115;BME280;49208;50.874;6.466;2023-08-17T15:43:48;100609.03;;;23.17;85.92
63115;BME280;49208;50.874;6.466;2023-08-17T15:46:13;100611.81;;;23.06;87.00
63115;BME280;49208;50.874;6.466;2023-08-17T15:48:38;100608.97;;;22.96;87.43
63115;BME280;49208;50.874;6.466;2023-08-17T15:51:04;100611.28;;;22.79;89.02
63115;BME280;49208;50.874;6.466;2023-08-17T15:53:29;100610.72;;;22.53;88.13
63115;BME280;49208;50.874;6.466;2023-08-17T15:55:55;100609.56;;;22.24;89.79
63115;BME280;49208;50.874;6.466;2023-08-17T15:58:20;100611.28;;;22.13;90.31
63115;BME280;49208;50.874;6.466;2023-08-17T16:00:46;100603.91;;;22.04;91.46
63115;BME280;49208;50.874;6.466;2023-08-17T16:03:11;100596.88;;;21.90;91.92
63115;BME280;49208;50.874;6.466;2023-08-17T16:05:36;100595.69;;;21.83;93.04
63115;BME280;49208;50.874;6.466;2023-08-17T16:08:02;100598.72;;;21.78;93.78
63115;BME280;49208;50.874;6.466;2023-08-17T16:10:28;100597.13;;;21.76;94.26
63115;BME280;49208;50.874;6.466;2023-08-17T16:12:54;100586.91;;;21.68;94.15
63115;BME280;49208;50.874;6.466;2023-08-17T16:15:20;100588.41;;;21.61;94.32
63115;BME280;49208;50.874;6.466;2023-08-17T16:17:45;100582.47;;;21.56;94.31
63115;BME280;49208;50.874;6.466;2023-08-17T16:20:11;100575.34;;;21.55;95.23
63115;BME280;49208;50.874;6.466;2023-08-17T16:22:36;100568.91;;;21.56;95.70
63115;BME280;49208;50.874;6.466;2023-08-17T16:25:02;100575.56;;;21.52;95.07
63115;BME280;49208;50.874;6.466;2023-08-17T16:27:28;100574.59;;;21.53;95.47
63115;BME280;49208;50.874;6.466;2023-08-17T16:29:53;100564.72;;;21.52;95.95
63115;BME280;49208;50.874;6.466;2023-08-17T16:32:18;100556.59;;;21.52;95.81
63115;BME280;49208;50.874;6.466;2023-08-17T16:34:44;100560.19;;;21.52;95.87
63115;BME280;49208;50.874;6.466;2023-08-17T16:37:09;100561.44;;;21.48;95.46
63115;BME280;49208;50.874;6.466;2023-08-17T16:39:35;100562.41;;;21.47;96.53
63115;BME280;49208;50.874;6.466;2023-08-17T16:42:00;100566.84;;;21.48;96.80
63115;BME280;49208;50.874;6.466;2023-08-17T16:44:26;100564.88;;;21.50;96.32
63115;BME280;49208;50.874;6.466;2023-08-17T16:46:51;100562.66;;;21.44;96.39
63115;BME280;49208;50.874;6.466;2023-08-17T16:49:17;100563.84;;;21.40;96.92
63115;BME280;49208;50.874;6.466;2023-08-17T16:51:43;100562.38;;;21.36;97.45
63115;BME280;49208;50.874;6.466;2023-08-17T16:54:08;100558.53;;;21.27;97.56
63115;BME280;49208;50.874;6.466;2023-08-17T16:56:34;100556.06;;;21.24;98.29
63115;BME280;49208;50.874;6.466;2023-08-17T16:58:59;100561.31;;;21.14;98.61
63115;BME280;49208;50.874;6.466;2023-08-17T17:01:24;100564.03;;;21.14;98.61
63115;BME280;49208;50.874;6.466;2023-08-17T17:03:50;100557.88;;;21.12;98.69
63115;BME280;49208;50.874;6.466;2023-08-17T17:06:15;100561.06;;;21.06;99.01
63115;BME280;49208;50.874;6.466;2023-08-17T17:08:41;100572.78;;;21.07;99.31
63115;BME280;49208;50.874;6.466;2023-08-17T17:11:06;100563.38;;;20.99;99.56
63115;BME280;49208;50.874;6.466;2023-08-17T17:13:33;100564.59;;;20.95;99.94
63115;BME280;49208;50.874;6.466;2023-08-17T17:16:00;100573.09;;;20.91;100.00
63115;BME280;49208;50.874;6.466;2023-08-17T17:18:25;100574.19;;;20.88;100.00
63115;BME280;49208;50.874;6.466;2023-08-17T17:20:51;100573.91;;;20.80;100.00
63115;BME280;49208;50.874;6.466;2023-08-17T17:23:16;100578.19;;;20.71;100.00
63115;BME280;49208;50.874;6.466;2023-08-17T17:25:42;100575.47;;;20.71;100.00
63115;BME280;49208;50.874;6.466;2023-08-17T17:28:07;100567.69;;;20.67;100.00
63115;BME280;49208;50.874;6.466;2023-08-17T17:30:32;100580.63;;;20.63;100.00
63115;BME280;49208;50.874;6.466;2023-08-17T17:32:58;100582.78;;;20.58;100.00
63115;BME280;49208;50.874;6.466;2023-08-17T17:35:23;100577.44;;;20.56;100.00
63115;BME280;49208;50.874;6.466;2023-08-17T17:37:49;100584.97;;;20.53;100.00
63115;BME280;49208;50.874;6.466;2023-08-17T17:40:14;100585.31;;;20.48;100.00
63115;BME280;49208;50.874;6.466;2023-08-17T17:42:39;100590.28;;;20.42;100.00
63115;BME280;49208;50.874;6.466;2023-08-17T17:45:05;100582.31;;;20.40;100.00
63115;BME280;49208;50.874;6.466;2023-08-17T17:47:31;100586.44;;;20.33;100.00
63115;BME280;49208;50.874;6.466;2023-08-17T17:50:00;100585.56;;;20.32;100.00
63115;BME280;49208;50.874;6.466;2023-08-17T17:52:26;100584.94;;;20.29;100.00
63115;BME280;49208;50.874;6.466;2023-08-17T17:54:53;100581.81;;;20.22;100.00
63115;BME280;49208;50.874;6.466;2023-08-17T17:57:19;100576.63;;;20.19;100.00
63115;BME280;49208;50.874;6.466;2023-08-17T17:59:44;100580.53;;;20.15;100.00
63115;BME280;49208;50.874;6.466;2023-08-17T18:02:11;100581.88;;;20.09;100.00
63115;BME280;49208;50.874;6.466;2023-08-17T18:04:36;100578.63;;;20.04;100.00
63115;BME280;49208;50.874;6.466;2023-08-17T18:07:02;100582.44;;;20.02;100.00
63115;BME280;49208;50.874;6.466;2023-08-17T18:09:28;100589.56;;;20.03;100.00
63115;BME280;49208;50.874;6.466;2023-08-17T18:11:55;100588.16;;;19.97;100.00
63115;BME280;49208;50.874;6.466;2023-08-17T18:14:20;100587.31;;;19.96;100.00
63115;BME280;49208;50.874;6.466;2023-08-17T18:16:46;100595.63;;;19.93;100.00
63115;BME280;49208;50.874;6.466;2023-08-17T18:19:11;100591.22;;;19.92;100.00
63115;BME280;49208;50.874;6.466;2023-08-17T18:21:37;100594.03;;;19.91;100.00
63115;BME280;49208;50.874;6.466;2023-08-17T18:24:02;100596.94;;;19.88;100.00
63115;BME280;49208;50.874;6.466;2023-08-17T18:26:28;100599.75;;;19.86;100.00
63115;BME280;49208;50.874;6.466;2023-08-17T18:28:53;100599.97;;;19.83;100.00
63115;BME280;49208;50.874;6.466;2023-08-17T18:31:20;100609.06;;;19.82;100.00
63115;BME280;49208;50.874;6.466;2023-08-17T18:33:45;100604.84;;;19.78;100.00
63115;BME280;49208;50.874;6.466;2023-08-17T18:36:11;100604.94;;;19.76;100.00
63115;BME280;49208;50.874;6.466;2023-08-17T18:38:36;100606.81;;;19.76;100.00
63115;BME280;49208;50.874;6.466;2023-08-17T18:41:08;100594.34;;;19.73;100.00
63115;BME280;49208;50.874;6.466;2023-08-17T18:43:37;100599.88;;;19.72;100.00
63115;BME280;49208;50.874;6.466;2023-08-17T18:46:03;100613.50;;;19.70;100.00